Time;durP1;ratioP1;P1;durP2;ratioP2;P2;SDS_P1;SDS_P2;PMS_P1;PMS_P2;Temp;Humidity;BMP_temperature;BMP_pressure;BME280_temperature;BME280_humidity;BME280_pressure;Samples;Min_cycle;Max_cycle;Signal;HPM_P1;HPM_P2
2021/01/17 00:02:17;;;;;;;23.45;10.65;;;;;;;;;;5051851;28;20209;-64
2021/01/17 00:04:43;;;;;;;25.30;10.93;;;;;;;;;;5049729;28;20548;-63
2021/01/17 00:07:10;;;;;;;19.58;9.05;;;;;;;;;;5049991;28;20204;-63
2021/01/17 00:09:36;;;;;;;19.98;6.90;;;;;;;;;;5049527;28;20262;-62
2021/01/17 00:12:04;;;;;;;19.98;8.82;;;;;;;;;;5050551;28;20209;-62
2021/01/17 00:14:31;;;;;;;28.17;11.02;;;;;;;;;;5049399;28;20262;-62
2021/01/17 00:16:59;;;;;;;22.98;10.82;;;;;;;;;;5050010;28;20196;-63
2021/01/17 00:19:30;;;;;;;21.20;9.60;;;;;;;;;;5049740;28;20184;-63
2021/01/17 00:21:56;;;;;;;23.65;10.85;;;;;;;;;;5049858;28;20200;-63
2021/01/17 00:24:22;;;;;;;24.20;10.35;;;;;;;;;;5049052;28;20224;-63
2021/01/17 00:26:49;;;;;;;23.13;10.32;;;;;;;;;;5049702;28;20196;-60
2021/01/17 00:29:15;;;;;;;26.73;12.25;;;;;;;;;;5049422;28;20662;-62
2021/01/17 00:31:41;;;;;;;25.58;10.60;;;;;;;;;;5050035;28;20268;-62
2021/01/17 00:34:09;;;;;;;24.92;11.20;;;;;;;;;;5049542;28;20228;-63
2021/01/17 00:36:36;;;;;;;17.98;9.55;;;;;;;;;;5049476;28;20224;-63
2021/01/17 00:39:03;;;;;;;23.67;10.57;;;;;;;;;;5049812;28;20200;-61
2021/01/17 00:41:30;;;;;;;25.67;11.30;;;;;;;;;;5048021;28;20631;-62
2021/01/17 00:43:56;;;;;;;21.52;10.60;;;;;;;;;;5049508;28;20196;-62
2021/01/17 00:46:23;;;;;;;22.17;9.52;;;;;;;;;;5049281;28;20185;-63
2021/01/17 00:48:49;;;;;;;28.23;11.82;;;;;;;;;;5049887;28;20208;-63
2021/01/17 00:51:16;;;;;;;25.23;12.25;;;;;;;;;;5048055;28;20210;-65
2021/01/17 00:53:42;;;;;;;25.00;11.82;;;;;;;;;;5049296;28;20193;-62
2021/01/17 00:56:08;;;;;;;28.25;12.63;;;;;;;;;;5047806;28;20506;-62
2021/01/17 00:58:35;;;;;;;25.50;12.27;;;;;;;;;;5048529;28;20201;-63
2021/01/17 01:01:07;;;;;;;24.70;11.50;;;;;;;;;;5050118;28;20185;-62
2021/01/17 01:03:37;;;;;;;24.25;11.73;;;;;;;;;;5050570;28;20205;-61
2021/01/17 01:06:03;;;;;;;18.75;7.45;;;;;;;;;;5050007;28;20193;-63
2021/01/17 01:08:30;;;;;;;22.75;11.30;;;;;;;;;;5051298;28;20295;-62
2021/01/17 01:10:56;;;;;;;28.40;12.40;;;;;;;;;;5050314;28;20207;-64
2021/01/17 01:13:22;;;;;;;29.50;12.27;;;;;;;;;;5049959;28;20276;-63
2021/01/17 01:15:48;;;;;;;18.25;7.97;;;;;;;;;;5048815;28;20311;-61
2021/01/17 01:18:15;;;;;;;25.25;11.27;;;;;;;;;;5049708;28;20690;-64
2021/01/17 01:20:41;;;;;;;27.40;11.50;;;;;;;;;;5050254;28;20615;-63
2021/01/17 01:23:08;;;;;;;22.42;9.68;;;;;;;;;;5053001;28;20204;-62
2021/01/17 01:25:34;;;;;;;16.90;7.35;;;;;;;;;;5051654;28;20223;-63
2021/01/17 01:28:00;;;;;;;23.02;10.40;;;;;;;;;;5053362;28;20643;-62
2021/01/17 01:30:26;;;;;;;19.80;8.60;;;;;;;;;;5055716;28;20183;-62
2021/01/17 01:32:53;;;;;;;19.73;9.48;;;;;;;;;;5053529;28;20590;-62
2021/01/17 01:35:19;;;;;;;20.52;9.13;;;;;;;;;;5052237;28;20240;-60
2021/01/17 01:37:45;;;;;;;17.23;9.70;;;;;;;;;;5052645;28;20255;-63
2021/01/17 01:40:12;;;;;;;18.08;8.63;;;;;;;;;;5052975;28;20200;-63
2021/01/17 01:42:42;;;;;;;20.42;9.40;;;;;;;;;;5052522;28;20208;-61
2021/01/17 01:45:09;;;;;;;13.25;5.75;;;;;;;;;;5052258;28;20258;-61
2021/01/17 01:47:36;;;;;;;16.98;8.32;;;;;;;;;;5052767;28;20227;-62
2021/01/17 01:50:03;;;;;;;19.17;9.43;;;;;;;;;;5052295;28;20205;-63
2021/01/17 01:52:30;;;;;;;20.48;8.95;;;;;;;;;;5052563;28;20664;-62
2021/01/17 01:54:56;;;;;;;16.85;8.07;;;;;;;;;;5052272;28;20213;-61
2021/01/17 01:57:22;;;;;;;17.23;8.18;;;;;;;;;;5052764;28;20203;-63
2021/01/17 01:59:49;;;;;;;19.20;8.75;;;;;;;;;;5051956;28;20275;-63
2021/01/17 02:02:16;;;;;;;16.98;7.78;;;;;;;;;;5052217;28;20181;-62
2021/01/17 02:04:42;;;;;;;15.07;6.97;;;;;;;;;;5052361;28;20192;-62
2021/01/17 02:07:27;;;;;;;17.08;7.90;;;;;;;;;;5052651;28;20733;-62
2021/01/17 02:09:53;;;;;;;13.65;7.10;;;;;;;;;;5051653;28;20200;-60
2021/01/17 02:12:19;;;;;;;16.38;7.80;;;;;;;;;;5052309;28;20204;-63
2021/01/17 02:14:51;;;;;;;16.75;7.78;;;;;;;;;;5051680;28;20227;-62
2021/01/17 02:17:21;;;;;;;16.88;8.57;;;;;;;;;;5052289;28;20197;-63
2021/01/17 02:20:00;;;;;;;16.70;8.27;;;;;;;;;;5051454;28;20184;-64
2021/01/17 02:22:29;;;;;;;22.10;8.38;;;;;;;;;;5052346;28;20639;-63
2021/01/17 02:25:22;;;;;;;19.35;8.93;;;;;;;;;;5051562;28;20568;-63
2021/01/17 02:27:57;;;;;;;17.75;8.77;;;;;;;;;;5051819;28;20295;-64
2021/01/17 02:30:26;;;;;;;22.08;9.32;;;;;;;;;;5052232;28;20196;-63
2021/01/17 02:33:01;;;;;;;21.90;9.23;;;;;;;;;;5051371;28;20204;-64
2021/01/17 02:35:28;;;;;;;21.77;9.98;;;;;;;;;;5051379;28;20725;-62
2021/01/17 02:37:54;;;;;;;19.13;8.90;;;;;;;;;;5051822;28;20204;-61
2021/01/17 02:40:21;;;;;;;18.23;7.97;;;;;;;;;;5051239;28;20689;-63
2021/01/17 02:42:47;;;;;;;22.52;10.07;;;;;;;;;;5051823;28;20656;-62
2021/01/17 02:45:14;;;;;;;23.02;9.85;;;;;;;;;;5051286;28;20272;-63
2021/01/17 02:47:41;;;;;;;21.23;9.75;;;;;;;;;;5051802;28;20189;-67
2021/01/17 02:50:10;;;;;;;23.17;9.98;;;;;;;;;;5051204;28;20283;-62
2021/01/17 02:52:46;;;;;;;23.15;10.02;;;;;;;;;;5051822;28;20197;-63
2021/01/17 02:55:13;;;;;;;21.13;9.65;;;;;;;;;;5051445;28;20227;-61
2021/01/17 02:57:40;;;;;;;22.17;9.40;;;;;;;;;;5051479;28;20255;-62
2021/01/17 03:00:09;;;;;;;20.63;9.38;;;;;;;;;;5051022;28;20185;-63
2021/01/17 03:02:38;;;;;;;23.23;11.30;;;;;;;;;;5053475;28;20265;-61
2021/01/17 03:05:05;;;;;;;25.50;10.70;;;;;;;;;;5051562;28;20192;-62
2021/01/17 03:07:33;;;;;;;20.17;8.70;;;;;;;;;;5052134;28;20200;-63
2021/01/17 03:10:07;;;;;;;25.42;10.93;;;;;;;;;;5051040;28;20215;-63
2021/01/17 03:12:33;;;;;;;22.77;11.68;;;;;;;;;;5051121;28;20196;-64
2021/01/17 03:15:00;;;;;;;22.42;10.80;;;;;;;;;;5050518;28;20220;-62
2021/01/17 03:17:27;;;;;;;24.58;11.52;;;;;;;;;;5051191;28;20926;-63
2021/01/17 03:19:53;;;;;;;22.75;9.05;;;;;;;;;;5051016;28;20219;-61
2021/01/17 03:22:19;;;;;;;25.70;11.70;;;;;;;;;;5050933;28;20208;-62
2021/01/17 03:24:46;;;;;;;21.35;10.52;;;;;;;;;;5050640;28;20275;-65
2021/01/17 03:27:12;;;;;;;23.73;10.55;;;;;;;;;;5050939;28;20191;-64
2021/01/17 03:29:38;;;;;;;20.85;10.20;;;;;;;;;;5050739;28;20236;-62
2021/01/17 03:32:05;;;;;;;21.10;9.20;;;;;;;;;;5050191;28;20192;-64
2021/01/17 03:34:31;;;;;;;19.48;9.00;;;;;;;;;;5050548;28;20224;-63
2021/01/17 03:36:57;;;;;;;18.88;8.80;;;;;;;;;;5050731;28;20228;-63
2021/01/17 03:39:24;;;;;;;18.30;8.32;;;;;;;;;;5050304;28;20203;-63
2021/01/17 03:41:50;;;;;;;20.70;10.13;;;;;;;;;;5051018;28;20196;-64
2021/01/17 03:44:16;;;;;;;18.52;8.05;;;;;;;;;;5049391;28;20189;-63
2021/01/17 03:46:42;;;;;;;18.20;9.30;;;;;;;;;;5050855;28;20778;-62
2021/01/17 03:49:10;;;;;;;17.17;8.57;;;;;;;;;;5050079;28;20208;-63
2021/01/17 03:51:36;;;;;;;19.75;8.57;;;;;;;;;;5050628;28;20207;-62
2021/01/17 03:54:02;;;;;;;19.00;8.77;;;;;;;;;;5050380;28;20659;-62
2021/01/17 03:56:28;;;;;;;15.85;7.93;;;;;;;;;;5050205;28;20231;-62
2021/01/17 03:58:54;;;;;;;20.70;9.20;;;;;;;;;;5050670;28;20576;-64
2021/01/17 04:01:21;;;;;;;22.08;9.25;;;;;;;;;;5050016;28;20235;-62
2021/01/17 04:03:47;;;;;;;19.52;9.77;;;;;;;;;;5050358;28;20650;-62
2021/01/17 04:06:14;;;;;;;17.80;8.95;;;;;;;;;;5049644;28;20247;-61
2021/01/17 04:08:40;;;;;;;19.52;8.98;;;;;;;;;;5050322;28;20199;-62
2021/01/17 04:11:07;;;;;;;19.40;9.43;;;;;;;;;;5049781;28;20211;-62
2021/01/17 04:13:33;;;;;;;23.52;9.88;;;;;;;;;;5049886;28;20177;-63
2021/01/17 04:15:59;;;;;;;21.92;9.18;;;;;;;;;;5049824;28;20220;-62
2021/01/17 04:18:25;;;;;;;21.30;9.63;;;;;;;;;;5050429;28;20267;-62
2021/01/17 04:20:53;;;;;;;17.30;9.57;;;;;;;;;;5049777;28;20292;-61
2021/01/17 04:23:20;;;;;;;20.48;9.63;;;;;;;;;;5050335;28;20185;-62
2021/01/17 04:25:46;;;;;;;19.98;10.30;;;;;;;;;;5049219;28;20196;-62
2021/01/17 04:28:12;;;;;;;18.02;9.10;;;;;;;;;;5050331;28;20211;-62
2021/01/17 04:30:38;;;;;;;19.52;9.73;;;;;;;;;;5049701;28;20192;-61
2021/01/17 04:33:05;;;;;;;20.60;9.90;;;;;;;;;;5051956;28;20200;-61
2021/01/17 04:35:31;;;;;;;21.40;9.75;;;;;;;;;;5051462;28;20251;-62
2021/01/17 04:37:58;;;;;;;19.85;8.93;;;;;;;;;;5050112;28;20193;-61
2021/01/17 04:40:26;;;;;;;16.10;8.20;;;;;;;;;;5049036;28;20219;-63
2021/01/17 04:43:00;;;;;;;20.23;8.13;;;;;;;;;;5049821;28;20192;-62
2021/01/17 04:45:27;;;;;;;16.92;8.23;;;;;;;;;;5049182;28;20283;-61
2021/01/17 04:47:53;;;;;;;19.20;8.43;;;;;;;;;;5049634;28;20698;-61
2021/01/17 04:50:20;;;;;;;16.45;8.52;;;;;;;;;;5048921;28;20243;-62
2021/01/17 04:52:49;;;;;;;16.33;7.97;;;;;;;;;;5049647;28;20534;-62
2021/01/17 04:55:16;;;;;;;16.38;8.75;;;;;;;;;;5050950;28;20223;-62
2021/01/17 04:57:51;;;;;;;17.83;8.13;;;;;;;;;;5053456;28;20179;-60
2021/01/17 05:00:23;;;;;;;18.23;8.77;;;;;;;;;;5053011;28;20203;-64
2021/01/17 05:03:08;;;;;;;16.55;8.50;;;;;;;;;;5053860;28;20201;-63
2021/01/17 05:05:40;;;;;;;17.35;8.70;;;;;;;;;;5052916;28;20188;-64
2021/01/17 05:08:28;;;;;;;17.38;8.68;;;;;;;;;;5053926;28;20196;-61
2021/01/17 05:10:59;;;;;;;17.65;8.32;;;;;;;;;;5053008;28;20223;-64
2021/01/17 05:13:31;;;;;;;19.33;9.20;;;;;;;;;;5053654;28;20208;-61
2021/01/17 05:16:02;;;;;;;19.88;10.02;;;;;;;;;;5053085;28;20638;-63
2021/01/17 05:18:29;;;;;;;21.60;11.25;;;;;;;;;;5053622;28;20245;-63
2021/01/17 05:20:59;;;;;;;22.38;10.52;;;;;;;;;;5053584;28;20196;-62
2021/01/17 05:23:27;;;;;;;25.55;11.23;;;;;;;;;;5054579;28;20682;-63
2021/01/17 05:25:56;;;;;;;22.88;10.77;;;;;;;;;;5052988;28;20196;-62
2021/01/17 05:28:22;;;;;;;22.70;11.18;;;;;;;;;;5053356;28;20200;-63
2021/01/17 05:30:49;;;;;;;19.55;10.70;;;;;;;;;;5052822;28;20177;-63
2021/01/17 05:33:16;;;;;;;21.02;10.13;;;;;;;;;;5053324;28;20242;-63
2021/01/17 05:35:43;;;;;;;20.77;11.20;;;;;;;;;;5052270;28;20263;-62
2021/01/17 05:38:12;;;;;;;23.58;11.05;;;;;;;;;;5053193;28;20601;-64
2021/01/17 05:40:38;;;;;;;20.80;11.00;;;;;;;;;;5052415;28;20194;-64
2021/01/17 05:43:07;;;;;;;24.38;11.60;;;;;;;;;;5053226;28;20283;-62
2021/01/17 05:45:34;;;;;;;23.33;11.52;;;;;;;;;;5052689;28;20201;-62
2021/01/17 05:48:01;;;;;;;25.65;13.35;;;;;;;;;;5052943;28;20682;-62
2021/01/17 05:50:31;;;;;;;26.20;12.90;;;;;;;;;;5052273;28;20200;-63
2021/01/17 05:52:59;;;;;;;25.15;12.63;;;;;;;;;;5052821;28;20813;-64
2021/01/17 05:55:29;;;;;;;25.58;13.18;;;;;;;;;;5052273;28;20229;-63
2021/01/17 05:58:15;;;;;;;24.67;12.85;;;;;;;;;;5052772;28;20199;-62
2021/01/17 06:00:43;;;;;;;26.02;12.77;;;;;;;;;;5052008;28;20239;-63
2021/01/17 06:03:09;;;;;;;25.27;13.15;;;;;;;;;;5053090;28;20660;-63
2021/01/17 06:05:36;;;;;;;26.80;12.75;;;;;;;;;;5054079;28;20685;-65
2021/01/17 06:08:03;;;;;;;29.23;13.68;;;;;;;;;;5051547;28;20228;-65
2021/01/17 06:10:30;;;;;;;28.73;12.70;;;;;;;;;;5051806;28;20204;-64
2021/01/17 06:12:58;;;;;;;26.23;12.57;;;;;;;;;;5052502;28;20195;-63
2021/01/17 06:15:30;;;;;;;28.13;13.77;;;;;;;;;;5051717;28;20321;-63
2021/01/17 06:17:57;;;;;;;27.33;13.57;;;;;;;;;;5052420;28;20276;-63
2021/01/17 06:20:27;;;;;;;27.42;13.10;;;;;;;;;;5051424;28;20196;-63
2021/01/17 06:22:57;;;;;;;36.20;12.85;;;;;;;;;;5052419;28;20200;-62
2021/01/17 06:25:29;;;;;;;27.55;12.63;;;;;;;;;;5051334;28;20200;-62
2021/01/17 06:28:10;;;;;;;23.00;11.50;;;;;;;;;;5052091;28;20192;-62
2021/01/17 06:30:36;;;;;;;24.52;11.55;;;;;;;;;;5051533;28;20648;-63
2021/01/17 06:33:08;;;;;;;31.88;14.35;;;;;;;;;;5051953;28;20227;-62
2021/01/17 06:35:37;;;;;;;31.08;15.48;;;;;;;;;;5050607;28;20240;-64
2021/01/17 06:38:16;;;;;;;34.78;15.32;;;;;;;;;;5052114;28;20663;-62
2021/01/17 06:40:44;;;;;;;33.25;15.90;;;;;;;;;;5051802;28;20197;-62
2021/01/17 06:43:10;;;;;;;33.22;15.45;;;;;;;;;;5051621;28;20192;-61
2021/01/17 06:45:37;;;;;;;32.83;16.08;;;;;;;;;;5051516;28;20189;-63
2021/01/17 06:48:04;;;;;;;33.55;16.40;;;;;;;;;;5051838;28;20627;-62
2021/01/17 06:50:30;;;;;;;37.88;18.40;;;;;;;;;;5051066;28;20192;-62
2021/01/17 06:53:00;;;;;;;36.97;16.70;;;;;;;;;;5051823;28;20201;-60
2021/01/17 06:55:26;;;;;;;32.20;16.10;;;;;;;;;;5050595;28;20315;-63
2021/01/17 06:57:53;;;;;;;31.52;14.13;;;;;;;;;;5051769;28;20188;-61
2021/01/17 07:00:19;;;;;;;35.67;16.83;;;;;;;;;;5050919;28;20631;-64
2021/01/17 07:02:54;;;;;;;33.17;16.02;;;;;;;;;;5051747;28;20193;-63
2021/01/17 07:05:43;;;;;;;45.85;21.13;;;;;;;;;;5051077;28;20216;-64
2021/01/17 07:08:18;;;;;;;33.88;17.50;;;;;;;;;;5051701;28;20235;-62
2021/01/17 07:10:50;;;;;;;35.13;17.23;;;;;;;;;;5050865;28;20208;-62
2021/01/17 07:13:19;;;;;;;35.05;17.50;;;;;;;;;;5051427;28;20208;-63
2021/01/17 07:15:48;;;;;;;34.05;17.35;;;;;;;;;;5050918;28;20220;-62
2021/01/17 07:18:16;;;;;;;35.92;17.88;;;;;;;;;;5048530;28;20647;-62
2021/01/17 07:20:46;;;;;;;42.30;18.58;;;;;;;;;;5050638;28;20654;-63
2021/01/17 07:23:19;;;;;;;39.47;18.60;;;;;;;;;;5052151;28;20272;-62
2021/01/17 07:25:47;;;;;;;39.72;19.10;;;;;;;;;;5052444;28;20212;-64
2021/01/17 07:28:20;;;;;;;43.00;19.65;;;;;;;;;;5051839;28;20200;-63
2021/01/17 07:30:59;;;;;;;41.78;20.35;;;;;;;;;;5050237;28;20712;-62
2021/01/17 07:33:27;;;;;;;41.75;21.50;;;;;;;;;;5050790;28;20200;-62
2021/01/17 07:35:57;;;;;;;35.53;18.55;;;;;;;;;;5051211;28;20612;-64
2021/01/17 07:38:27;;;;;;;32.90;16.80;;;;;;;;;;5054406;28;20189;-62
2021/01/17 07:40:58;;;;;;;32.25;15.60;;;;;;;;;;5051418;28;20205;-64
2021/01/17 07:43:37;;;;;;;30.30;15.02;;;;;;;;;;5050934;28;20189;-64
2021/01/17 07:46:09;;;;;;;26.88;13.88;;;;;;;;;;5050189;28;20207;-65
2021/01/17 07:48:36;;;;;;;27.92;13.27;;;;;;;;;;5050801;28;20197;-64
2021/01/17 07:51:03;;;;;;;23.05;11.65;;;;;;;;;;5049998;28;20299;-62
2021/01/17 07:53:39;;;;;;;20.23;10.52;;;;;;;;;;5050849;28;20189;-63
2021/01/17 07:56:05;;;;;;;22.45;9.48;;;;;;;;;;5050028;28;20216;-62
2021/01/17 07:58:33;;;;;;;16.40;8.25;;;;;;;;;;5050515;28;20196;-62
2021/01/17 08:00:59;;;;;;;18.25;8.63;;;;;;;;;;5050146;28;20210;-62
2021/01/17 08:03:26;;;;;;;20.08;8.88;;;;;;;;;;5050692;28;20634;-63
2021/01/17 08:05:53;;;;;;;21.92;10.68;;;;;;;;;;5048496;28;20208;-62
2021/01/17 08:08:46;;;;;;;20.83;9.32;;;;;;;;;;5050483;28;20221;-64
2021/01/17 08:11:31;;;;;;;23.20;11.15;;;;;;;;;;5048413;28;20212;-61
2021/01/17 08:13:57;;;;;;;24.08;11.77;;;;;;;;;;5050292;28;20279;-64
2021/01/17 08:16:23;;;;;;;25.58;11.68;;;;;;;;;;5049324;28;20627;-61
2021/01/17 08:18:50;;;;;;;25.90;11.68;;;;;;;;;;5050264;28;20262;-63
2021/01/17 08:21:25;;;;;;;24.55;11.82;;;;;;;;;;5049434;28;20681;-62
2021/01/17 08:24:10;;;;;;;25.15;12.07;;;;;;;;;;5050122;28;20192;-62
2021/01/17 08:26:55;;;;;;;22.17;12.48;;;;;;;;;;5050275;28;20189;-62
2021/01/17 08:29:21;;;;;;;28.02;12.88;;;;;;;;;;5049739;28;20223;-63
2021/01/17 08:31:48;;;;;;;20.95;11.27;;;;;;;;;;5050078;28;20206;-61
2021/01/17 08:34:15;;;;;;;20.85;11.00;;;;;;;;;;5049419;28;20304;-62
2021/01/17 08:36:42;;;;;;;25.98;10.98;;;;;;;;;;5049742;28;20247;-61
2021/01/17 08:39:09;;;;;;;22.48;11.15;;;;;;;;;;5049897;28;20204;-63
2021/01/17 08:41:35;;;;;;;19.02;9.38;;;;;;;;;;5050274;28;20207;-63
2021/01/17 08:44:01;;;;;;;22.23;9.88;;;;;;;;;;5050116;28;20193;-62
2021/01/17 08:46:34;;;;;;;18.02;8.10;;;;;;;;;;5049080;28;20212;-62
2021/01/17 08:49:01;;;;;;;16.83;7.93;;;;;;;;;;5049970;28;20291;-63
2021/01/17 08:51:28;;;;;;;14.40;7.57;;;;;;;;;;5049037;28;20196;-63
2021/01/17 08:53:54;;;;;;;12.60;6.43;;;;;;;;;;5049992;28;20183;-61
2021/01/17 08:56:21;;;;;;;16.13;7.82;;;;;;;;;;5050057;28;20216;-63
2021/01/17 08:58:58;;;;;;;17.13;7.55;;;;;;;;;;5051152;28;20196;-62
2021/01/17 09:01:25;;;;;;;11.93;6.03;;;;;;;;;;5045102;28;20210;-62
2021/01/17 09:03:52;;;;;;;11.50;5.75;;;;;;;;;;5042940;28;20287;-63
2021/01/17 09:06:19;;;;;;;10.50;6.18;;;;;;;;;;5043059;28;20205;-62
2021/01/17 09:08:48;;;;;;;15.55;7.22;;;;;;;;;;5053331;28;20227;-62
2021/01/17 09:11:27;;;;;;;10.50;5.65;;;;;;;;;;5050656;28;20197;-64
2021/01/17 09:14:11;;;;;;;10.75;5.00;;;;;;;;;;5048345;28;20299;-64
2021/01/17 09:16:42;;;;;;;10.43;5.47;;;;;;;;;;5048518;28;20255;-63
2021/01/17 09:19:09;;;;;;;13.13;6.35;;;;;;;;;;5048318;28;20227;-64
2021/01/17 09:21:35;;;;;;;13.10;6.78;;;;;;;;;;5048998;28;20577;-61
2021/01/17 09:24:11;;;;;;;11.98;6.05;;;;;;;;;;5049301;28;20302;-64
2021/01/17 09:26:39;;;;;;;10.85;4.50;;;;;;;;;;5048865;28;20199;-61
2021/01/17 09:29:06;;;;;;;14.95;6.35;;;;;;;;;;5047963;28;20207;-64
2021/01/17 09:31:33;;;;;;;12.52;6.88;;;;;;;;;;5047738;28;20193;-64
2021/01/17 09:33:59;;;;;;;11.77;6.55;;;;;;;;;;5048237;28;20205;-65
2021/01/17 09:36:26;;;;;;;12.45;6.72;;;;;;;;;;5047814;28;20237;-65
2021/01/17 09:38:52;;;;;;;14.55;6.72;;;;;;;;;;5048782;28;20262;-61
2021/01/17 09:41:29;;;;;;;16.77;6.90;;;;;;;;;;5048866;28;20207;-65
2021/01/17 09:43:56;;;;;;;12.18;6.93;;;;;;;;;;5052285;28;20192;-63
2021/01/17 09:46:24;;;;;;;17.02;7.60;;;;;;;;;;5052242;28;20193;-66
2021/01/17 09:48:54;;;;;;;12.25;7.10;;;;;;;;;;5052781;28;20211;-63
2021/01/17 09:51:21;;;;;;;13.13;7.15;;;;;;;;;;5053597;28;20209;-62
2021/01/17 09:53:47;;;;;;;12.82;6.53;;;;;;;;;;5054684;28;20199;-63
2021/01/17 09:56:15;;;;;;;16.98;7.38;;;;;;;;;;5054069;28;20228;-69
2021/01/17 09:58:42;;;;;;;12.80;6.80;;;;;;;;;;5052232;28;20197;-66
2021/01/17 10:01:15;;;;;;;16.02;7.15;;;;;;;;;;5051480;28;20215;-63
2021/01/17 10:03:41;;;;;;;14.35;7.32;;;;;;;;;;5051471;28;20188;-66
2021/01/17 10:06:08;;;;;;;14.65;8.25;;;;;;;;;;5051154;28;20196;-62
2021/01/17 10:08:35;;;;;;;11.38;6.68;;;;;;;;;;5053690;28;20206;-63
2021/01/17 10:11:02;;;;;;;15.05;7.43;;;;;;;;;;5051316;28;20575;-66
2021/01/17 10:13:28;;;;;;;17.70;8.20;;;;;;;;;;5051991;28;20220;-62
2021/01/17 10:15:58;;;;;;;15.13;8.00;;;;;;;;;;5051051;28;20718;-66
2021/01/17 10:18:24;;;;;;;22.65;10.88;;;;;;;;;;5051189;28;20250;-67
2021/01/17 10:20:54;;;;;;;30.83;15.60;;;;;;;;;;5051196;28;20184;-63
2021/01/17 10:23:28;;;;;;;15.85;8.43;;;;;;;;;;5051327;28;20212;-63
2021/01/17 10:25:54;;;;;;;13.50;7.03;;;;;;;;;;5051068;28;20881;-62
2021/01/17 10:28:23;;;;;;;16.48;7.95;;;;;;;;;;5051264;28;20203;-64
2021/01/17 10:30:50;;;;;;;18.63;8.70;;;;;;;;;;5050875;28;20185;-63
2021/01/17 10:33:16;;;;;;;15.90;7.97;;;;;;;;;;5051799;28;20207;-64
2021/01/17 10:35:46;;;;;;;16.48;8.13;;;;;;;;;;5050611;28;20264;-63
2021/01/17 10:38:13;;;;;;;15.80;8.30;;;;;;;;;;5050841;28;20283;-63
2021/01/17 10:40:40;;;;;;;17.60;8.90;;;;;;;;;;5052234;28;20709;-64
2021/01/17 10:43:08;;;;;;;19.55;9.77;;;;;;;;;;5052469;28;20198;-62
2021/01/17 10:45:35;;;;;;;16.98;8.77;;;;;;;;;;5050370;28;20200;-64
2021/01/17 10:48:06;;;;;;;94.57;53.22;;;;;;;;;;5050770;28;20196;-67
2021/01/17 10:50:43;;;;;;;102.15;58.65;;;;;;;;;;5050648;28;20697;-68
2021/01/17 10:53:15;;;;;;;19.50;10.25;;;;;;;;;;5050869;28;20204;-63
2021/01/17 10:55:45;;;;;;;10.93;6.20;;;;;;;;;;5049995;28;20690;-64
2021/01/17 10:58:20;;;;;;;17.15;8.70;;;;;;;;;;5050949;28;20205;-63
2021/01/17 11:00:53;;;;;;;9.73;4.80;;;;;;;;;;5049131;28;20215;-64
2021/01/17 11:03:29;;;;;;;11.13;7.00;;;;;;;;;;5050907;28;20201;-63
2021/01/17 11:06:05;;;;;;;14.32;7.85;;;;;;;;;;5050431;28;20204;-63
2021/01/17 11:08:39;;;;;;;25.10;11.48;;;;;;;;;;5050389;28;20291;-63
2021/01/17 11:11:07;;;;;;;14.30;8.02;;;;;;;;;;5050222;28;20215;-65
2021/01/17 11:13:33;;;;;;;11.30;6.15;;;;;;;;;;5051286;28;20201;-65
2021/01/17 11:16:00;;;;;;;149.13;79.03;;;;;;;;;;5050576;28;20256;-63
2021/01/17 11:18:26;;;;;;;81.88;44.38;;;;;;;;;;5050723;28;20192;-64
2021/01/17 11:20:56;;;;;;;16.17;9.05;;;;;;;;;;5050504;28;20587;-63
2021/01/17 11:23:23;;;;;;;12.15;6.80;;;;;;;;;;5050455;28;20667;-62
2021/01/17 11:26:02;;;;;;;15.48;8.57;;;;;;;;;;5049750;28;20231;-62
2021/01/17 11:28:30;;;;;;;16.35;8.20;;;;;;;;;;5050254;28;20204;-64
2021/01/17 11:31:16;;;;;;;14.63;7.53;;;;;;;;;;5049753;28;20192;-61
2021/01/17 11:33:46;;;;;;;17.88;9.02;;;;;;;;;;5050036;28;20224;-63
2021/01/17 11:36:17;;;;;;;11.02;5.85;;;;;;;;;;5049158;28;20248;-63
2021/01/17 11:38:44;;;;;;;14.38;7.53;;;;;;;;;;5049932;28;20284;-64
2021/01/17 11:41:12;;;;;;;16.05;8.30;;;;;;;;;;5049730;28;20252;-63
2021/01/17 11:43:38;;;;;;;138.18;80.68;;;;;;;;;;5049797;28;20275;-65
2021/01/17 11:46:06;;;;;;;51.05;29.85;;;;;;;;;;5049125;28;20196;-66
2021/01/17 11:48:33;;;;;;;14.75;8.45;;;;;;;;;;5049695;28;20651;-63
2021/01/17 11:51:00;;;;;;;15.75;8.23;;;;;;;;;;5049354;28;20197;-62
2021/01/17 11:53:27;;;;;;;18.73;8.70;;;;;;;;;;5049820;28;20201;-64
2021/01/17 11:55:53;;;;;;;15.55;9.75;;;;;;;;;;5049106;28;20224;-63
2021/01/17 11:58:20;;;;;;;18.95;9.10;;;;;;;;;;5049500;28;20306;-61
2021/01/17 12:00:46;;;;;;;17.65;9.15;;;;;;;;;;5049116;28;20593;-64
2021/01/17 12:03:22;;;;;;;15.30;8.68;;;;;;;;;;5049800;28;20193;-63
2021/01/17 12:05:56;;;;;;;15.35;8.25;;;;;;;;;;5048593;28;20279;-63
2021/01/17 12:08:23;;;;;;;13.32;8.05;;;;;;;;;;5048384;28;20607;-63
2021/01/17 12:10:53;;;;;;;14.90;8.90;;;;;;;;;;5049459;28;20198;-65
2021/01/17 12:13:19;;;;;;;15.77;9.23;;;;;;;;;;5050026;28;20283;-66
2021/01/17 12:15:46;;;;;;;13.32;8.32;;;;;;;;;;5050480;28;20247;-65
2021/01/17 12:18:12;;;;;;;17.05;9.20;;;;;;;;;;5050459;28;20567;-64
2021/01/17 12:20:39;;;;;;;17.27;10.50;;;;;;;;;;5049762;28;20188;-65
2021/01/17 12:23:06;;;;;;;16.75;9.48;;;;;;;;;;5049291;28;20200;-64
2021/01/17 12:25:32;;;;;;;17.75;9.52;;;;;;;;;;5048817;28;20189;-67
2021/01/17 12:27:58;;;;;;;17.75;9.55;;;;;;;;;;5049138;28;20642;-67
2021/01/17 12:30:25;;;;;;;15.13;7.90;;;;;;;;;;5048642;28;20697;-65
2021/01/17 12:32:52;;;;;;;14.43;8.63;;;;;;;;;;5049191;28;20200;-65
2021/01/17 12:35:18;;;;;;;15.05;8.20;;;;;;;;;;5048442;28;20236;-66
2021/01/17 12:37:45;;;;;;;12.93;7.50;;;;;;;;;;5049106;28;20220;-66
2021/01/17 12:40:11;;;;;;;27.45;15.50;;;;;;;;;;5049137;28;20188;-66
2021/01/17 12:42:37;;;;;;;20.52;12.48;;;;;;;;;;5049059;28;20647;-66
2021/01/17 12:45:04;;;;;;;11.40;7.63;;;;;;;;;;5048404;28;20625;-67
2021/01/17 12:47:30;;;;;;;11.98;7.88;;;;;;;;;;5048691;28;20228;-64
2021/01/17 12:49:57;;;;;;;14.27;8.82;;;;;;;;;;5048966;28;20200;-64
2021/01/17 12:52:23;;;;;;;16.67;9.73;;;;;;;;;;5049202;28;20640;-66
2021/01/17 12:54:50;;;;;;;17.00;9.95;;;;;;;;;;5049261;28;20189;-66
2021/01/17 12:57:16;;;;;;;16.27;10.07;;;;;;;;;;5049783;28;20216;-67
2021/01/17 12:59:42;;;;;;;14.60;9.40;;;;;;;;;;5048281;28;20196;-68
2021/01/17 13:02:08;;;;;;;17.45;9.63;;;;;;;;;;5049158;28;20267;-65
2021/01/17 13:04:35;;;;;;;18.88;9.38;;;;;;;;;;5048390;28;20647;-68
2021/01/17 13:07:04;;;;;;;18.80;10.77;;;;;;;;;;5048273;28;20208;-67
2021/01/17 13:09:30;;;;;;;16.65;9.85;;;;;;;;;;5048614;28;20841;-62
2021/01/17 13:12:06;;;;;;;21.77;12.80;;;;;;;;;;5048991;28;20291;-66
2021/01/17 13:14:32;;;;;;;17.77;9.50;;;;;;;;;;5048082;28;20199;-64
2021/01/17 13:16:58;;;;;;;18.85;10.25;;;;;;;;;;5051612;28;20216;-68
2021/01/17 13:19:25;;;;;;;18.30;10.23;;;;;;;;;;5052210;28;20196;-63
2021/01/17 13:21:51;;;;;;;16.70;9.45;;;;;;;;;;5051422;28;20203;-64
2021/01/17 13:24:17;;;;;;;17.83;9.93;;;;;;;;;;5050988;28;20204;-65
2021/01/17 13:26:44;;;;;;;32.78;18.50;;;;;;;;;;5052809;28;20188;-68
2021/01/17 13:29:10;;;;;;;72.80;42.38;;;;;;;;;;5052173;28;20200;-67
2021/01/17 13:31:36;;;;;;;16.65;9.60;;;;;;;;;;5052749;28;20231;-68
2021/01/17 13:34:03;;;;;;;18.33;10.40;;;;;;;;;;5052596;28;20271;-68
2021/01/17 13:36:29;;;;;;;17.98;9.93;;;;;;;;;;5050507;28;20687;-66
2021/01/17 13:38:56;;;;;;;16.40;9.73;;;;;;;;;;5052541;28;20634;-65
2021/01/17 13:41:22;;;;;;;18.23;9.60;;;;;;;;;;5051866;28;20208;-65
2021/01/17 13:43:48;;;;;;;16.88;9.88;;;;;;;;;;5052403;28;20204;-66
2021/01/17 13:46:14;;;;;;;19.45;10.40;;;;;;;;;;5052502;28;20571;-67
2021/01/17 13:48:41;;;;;;;18.13;9.82;;;;;;;;;;5051654;28;20295;-66
2021/01/17 13:51:07;;;;;;;17.23;10.70;;;;;;;;;;5052275;28;20640;-67
2021/01/17 13:53:34;;;;;;;16.35;9.55;;;;;;;;;;5052652;28;20204;-67
2021/01/17 13:56:00;;;;;;;18.73;10.27;;;;;;;;;;5051569;28;20718;-64
2021/01/17 13:58:27;;;;;;;17.58;10.15;;;;;;;;;;5051819;28;20283;-65
2021/01/17 14:00:53;;;;;;;18.33;10.45;;;;;;;;;;5051693;28;20193;-64
2021/01/17 14:03:19;;;;;;;16.65;10.40;;;;;;;;;;5051683;28;20205;-66
2021/01/17 14:05:46;;;;;;;17.70;9.88;;;;;;;;;;5051271;28;20203;-66
2021/01/17 14:08:12;;;;;;;177.70;19.63;;;;;;;;;;5052175;28;20205;-65
2021/01/17 14:10:38;;;;;;;27.38;9.80;;;;;;;;;;5051060;28;20207;-66
2021/01/17 14:13:04;;;;;;;17.27;9.85;;;;;;;;;;5050057;28;20745;-65
2021/01/17 14:15:30;;;;;;;23.02;10.88;;;;;;;;;;5051034;28;20193;-65
2021/01/17 14:17:57;;;;;;;18.65;10.52;;;;;;;;;;5051404;28;20671;-64
2021/01/17 14:20:25;;;;;;;15.25;9.02;;;;;;;;;;5051171;28;20208;-65
2021/01/17 14:22:51;;;;;;;14.65;7.63;;;;;;;;;;5057232;28;20181;-65
2021/01/17 14:25:17;;;;;;;14.65;8.77;;;;;;;;;;5050927;28;20295;-63
2021/01/17 14:27:44;;;;;;;16.02;8.77;;;;;;;;;;5050501;28;20188;-64
2021/01/17 14:30:11;;;;;;;16.70;8.90;;;;;;;;;;5050602;28;20197;-67
2021/01/17 14:32:37;;;;;;;15.40;9.20;;;;;;;;;;5050634;28;20773;-62